Time;durP1;ratioP1;P1;durP2;ratioP2;P2;SDS_P1;SDS_P2;PMS_P1;PMS_P2;Temp;Humidity;BMP_temperature;BMP_pressure;BME280_temperature;BME280_humidity;BME280_pressure;Samples;Min_cycle;Max_cycle;Signal;HPM_P1;HPM_P2
2022/10/01 00:01:13;;;;;;;;;;;10.30;99.90;;;;;;5109201;28;20487;-65
2022/10/01 00:03:41;;;;;;;;;;;10.40;99.90;;;;;;5110638;28;19962;-66
2022/10/01 00:06:12;;;;;;;;;;;10.40;99.90;;;;;;5102877;28;20023;-66
2022/10/01 00:08:41;;;;;;;;;;;10.40;99.90;;;;;;5105038;28;20040;-66
2022/10/01 00:11:10;;;;;;;;;;;10.40;99.90;;;;;;5101697;28;19962;-65
2022/10/01 00:13:38;;;;;;;;;;;10.40;99.90;;;;;;5096424;28;19962;-65
2022/10/01 00:16:07;;;;;;;;;;;10.40;99.90;;;;;;5095599;28;20461;-65
2022/10/01 00:18:36;;;;;;;;;;;10.50;99.90;;;;;;5095231;28;20478;-65
2022/10/01 00:21:07;;;;;;;;;;;10.50;99.90;;;;;;5096001;28;19998;-65
2022/10/01 00:23:37;;;;;;;;;;;10.50;99.90;;;;;;5095423;28;20321;-65
2022/10/01 00:26:10;;;;;;;;;;;10.40;99.90;;;;;;5095398;28;20029;-66
2022/10/01 00:28:37;;;;;;;;;;;10.40;99.90;;;;;;5098153;28;19997;-65
2022/10/01 00:31:06;;;;;;;;;;;10.40;99.90;;;;;;5115708;28;20370;-66
2022/10/01 00:33:35;;;;;;;;;;;10.40;99.90;;;;;;5115692;28;20040;-65
2022/10/01 00:36:02;;;;;;;;;;;10.50;99.90;;;;;;5115282;28;20005;-65
2022/10/01 00:38:30;;;;;;;;;;;10.40;99.90;;;;;;5114828;28;20506;-65
2022/10/01 00:40:59;;;;;;;;;;;10.40;99.90;;;;;;5114630;28;20001;-66
2022/10/01 00:43:28;;;;;;;;;;;10.40;99.90;;;;;;5115640;28;19973;-65
2022/10/01 00:45:59;;;;;;;;;;;10.50;99.90;;;;;;5115343;28;19962;-66
2022/10/01 00:48:28;;;;;;;;;;;10.50;99.90;;;;;;5115661;28;20011;-65
2022/10/01 00:50:56;;;;;;;;;;;10.50;99.90;;;;;;5115313;28;20008;-66
2022/10/01 00:53:24;;;;;;;;;;;10.60;99.90;;;;;;5115562;28;20006;-66
2022/10/01 00:55:54;;;;;;;;;;;10.60;99.90;;;;;;5106207;28;20434;-65
2022/10/01 00:58:23;;;;;;;;;;;10.50;99.90;;;;;;5115215;28;20392;-66
2022/10/01 01:00:53;;;;;;;;;;;10.50;99.90;;;;;;5100629;28;20203;-66
2022/10/01 01:03:21;;;;;;;;;;;10.50;99.90;;;;;;5099605;28;20010;-66
2022/10/01 01:05:49;;;;;;;;;;;10.50;99.90;;;;;;5097256;27;20443;-66
2022/10/01 01:08:17;;;;;;;;;;;10.50;99.90;;;;;;5097637;28;19962;-66
2022/10/01 01:10:50;;;;;;;;;;;10.60;99.90;;;;;;5097012;28;20425;-66
2022/10/01 01:13:22;;;;;;;;;;;10.60;99.90;;;;;;5110644;28;19962;-66
2022/10/01 01:15:54;;;;;;;;;;;10.60;99.90;;;;;;5093778;28;20007;-66
2022/10/01 01:18:24;;;;;;;;;;;10.60;99.90;;;;;;5102441;28;20431;-66
2022/10/01 01:21:05;;;;;;;;;;;10.70;99.90;;;;;;5101859;28;19962;-66
2022/10/01 01:23:47;;;;;;;;;;;10.60;99.90;;;;;;5105932;28;20029;-63
2022/10/01 01:26:19;;;;;;;;;;;10.50;99.90;;;;;;5102805;28;20000;-64
2022/10/01 01:28:50;;;;;;;;;;;10.50;99.90;;;;;;5101031;28;20340;-63
2022/10/01 01:31:21;;;;;;;;;;;10.50;99.90;;;;;;5104429;28;19980;-63
2022/10/01 01:33:51;;;;;;;;;;;10.60;99.90;;;;;;5102743;28;20340;-63
2022/10/01 01:36:20;;;;;;;;;;;10.60;99.90;;;;;;5105842;27;20009;-63
2022/10/01 01:38:53;;;;;;;;;;;10.50;99.90;;;;;;5096093;28;20005;-63
2022/10/01 01:41:22;;;;;;;;;;;10.60;99.90;;;;;;5100966;28;19957;-63
2022/10/01 01:43:53;;;;;;;;;;;10.50;99.90;;;;;;5101429;27;19998;-63
2022/10/01 01:46:21;;;;;;;;;;;10.40;99.90;;;;;;5098375;28;20011;-63
2022/10/01 01:48:52;;;;;;;;;;;10.40;99.90;;;;;;5107629;28;19970;-63
2022/10/01 01:51:22;;;;;;;;;;;10.40;99.90;;;;;;5100604;28;19966;-63
2022/10/01 01:53:50;;;;;;;;;;;10.50;99.90;;;;;;5107809;28;19994;-62
2022/10/01 01:56:18;;;;;;;;;;;10.40;99.90;;;;;;5096779;28;20009;-63
2022/10/01 01:58:46;;;;;;;;;;;10.30;99.90;;;;;;5094081;28;19962;-63
2022/10/01 02:01:28;;;;;;;;;;;10.30;99.90;;;;;;5111008;28;20021;-63
2022/10/01 02:03:58;;;;;;;;;;;10.20;99.90;;;;;;5107959;28;19972;-63
2022/10/01 02:06:29;;;;;;;;;;;10.20;99.90;;;;;;5090751;28;19962;-63
2022/10/01 02:08:59;;;;;;;;;;;10.20;99.90;;;;;;5097041;28;19962;-63
2022/10/01 02:11:28;;;;;;;;;;;10.20;99.90;;;;;;5108618;28;20099;-64
2022/10/01 02:14:03;;;;;;;;;;;10.10;99.90;;;;;;5095662;28;20005;-63
2022/10/01 02:16:36;;;;;;;;;;;10.00;99.90;;;;;;5100840;28;19970;-63
2022/10/01 02:19:12;;;;;;;;;;;10.00;99.90;;;;;;5101720;28;19966;-63
2022/10/01 02:21:43;;;;;;;;;;;9.90;99.90;;;;;;5102186;28;20419;-63
2022/10/01 02:24:15;;;;;;;;;;;9.90;99.90;;;;;;5099617;28;20005;-62
2022/10/01 02:26:44;;;;;;;;;;;9.90;99.90;;;;;;5100930;28;19980;-63
2022/10/01 02:29:15;;;;;;;;;;;9.90;99.90;;;;;;5104212;28;20053;-63
2022/10/01 02:31:45;;;;;;;;;;;9.90;99.90;;;;;;5105054;28;19962;-63
2022/10/01 02:34:15;;;;;;;;;;;9.90;99.90;;;;;;5100153;28;20023;-63
2022/10/01 02:36:48;;;;;;;;;;;10.00;99.90;;;;;;5096783;28;19962;-63
2022/10/01 02:39:17;;;;;;;;;;;10.00;99.90;;;;;;5100313;28;19958;-63
2022/10/01 02:41:45;;;;;;;;;;;10.10;99.90;;;;;;5096989;27;20465;-63
2022/10/01 02:44:14;;;;;;;;;;;10.00;99.90;;;;;;5097538;27;19966;-63
2022/10/01 02:46:45;;;;;;;;;;;10.00;99.90;;;;;;5099705;27;20349;-63
2022/10/01 02:49:14;;;;;;;;;;;10.00;99.90;;;;;;5100002;28;20012;-63
2022/10/01 02:51:46;;;;;;;;;;;10.00;99.90;;;;;;5104527;28;20009;-63
2022/10/01 02:54:17;;;;;;;;;;;9.90;99.90;;;;;;5103864;28;20008;-63
2022/10/01 02:59:30;;;;;;;;;;;9.90;99.90;;;;;;5094464;28;20465;-63
2022/10/01 03:01:58;;;;;;;;;;;9.80;99.90;;;;;;5102296;28;19970;-63
2022/10/01 03:04:27;;;;;;;;;;;9.80;99.90;;;;;;5105902;27;20547;-64
2022/10/01 03:06:57;;;;;;;;;;;9.70;99.90;;;;;;5106423;28;19998;-64
2022/10/01 03:09:25;;;;;;;;;;;9.70;99.90;;;;;;5098189;28;19966;-63
2022/10/01 03:11:53;;;;;;;;;;;9.60;99.90;;;;;;5098611;28;19996;-63
2022/10/01 03:14:22;;;;;;;;;;;9.60;99.90;;;;;;5097729;28;19997;-64
2022/10/01 03:16:50;;;;;;;;;;;9.60;99.90;;;;;;5092592;28;19989;-64
2022/10/01 03:19:18;;;;;;;;;;;9.70;99.90;;;;;;5100079;28;20005;-63
2022/10/01 03:21:47;;;;;;;;;;;9.70;99.90;;;;;;5098348;28;20315;-63
2022/10/01 03:24:15;;;;;;;;;;;9.80;99.90;;;;;;5102906;28;20015;-63
2022/10/01 03:26:44;;;;;;;;;;;9.90;99.90;;;;;;5100516;28;20312;-64
2022/10/01 03:29:12;;;;;;;;;;;9.90;99.90;;;;;;5105929;28;20496;-64
2022/10/01 03:31:39;;;;;;;;;;;10.10;99.90;;;;;;5095478;28;19958;-63
2022/10/01 03:34:07;;;;;;;;;;;10.10;99.90;;;;;;5108141;28;20049;-63
2022/10/01 03:36:36;;;;;;;;;;;10.20;99.90;;;;;;5091781;28;19966;-63
2022/10/01 03:39:05;;;;;;;;;;;10.10;99.90;;;;;;5110826;28;19965;-63
2022/10/01 03:41:33;;;;;;;;;;;10.00;99.90;;;;;;5093984;28;20032;-63
2022/10/01 03:44:01;;;;;;;;;;;10.00;99.90;;;;;;5101711;28;19958;-63
2022/10/01 03:46:29;;;;;;;;;;;10.00;99.90;;;;;;5099379;28;20414;-63
2022/10/01 03:48:59;;;;;;;;;;;9.90;99.90;;;;;;5098377;28;20001;-63
2022/10/01 03:51:27;;;;;;;;;;;9.90;99.90;;;;;;5105775;28;19970;-62
2022/10/01 03:53:55;;;;;;;;;;;9.90;99.90;;;;;;5100688;28;19966;-62
2022/10/01 03:56:24;;;;;;;;;;;9.90;99.90;;;;;;5100434;28;19990;-63
2022/10/01 03:58:52;;;;;;;;;;;9.90;99.90;;;;;;5104645;28;19966;-62
2022/10/01 04:01:20;;;;;;;;;;;9.80;99.90;;;;;;5101900;28;19984;-62
2022/10/01 04:03:49;;;;;;;;;;;9.60;99.90;;;;;;5097226;28;19970;-63
2022/10/01 04:06:16;;;;;;;;;;;9.70;99.90;;;;;;5104065;28;20019;-62
2022/10/01 04:08:44;;;;;;;;;;;9.60;99.90;;;;;;5109911;28;20059;-62
2022/10/01 04:11:12;;;;;;;;;;;9.60;99.90;;;;;;5099780;28;20004;-62
2022/10/01 04:13:41;;;;;;;;;;;9.50;99.90;;;;;;5097072;28;20181;-62
2022/10/01 04:16:09;;;;;;;;;;;9.50;99.90;;;;;;5103329;28;19962;-62
2022/10/01 04:18:37;;;;;;;;;;;9.50;99.90;;;;;;5095338;28;20011;-63
2022/10/01 04:21:04;;;;;;;;;;;9.50;99.90;;;;;;5100381;28;20049;-62
2022/10/01 04:23:32;;;;;;;;;;;9.50;99.90;;;;;;5103550;28;19986;-62
2022/10/01 04:26:01;;;;;;;;;;;9.50;99.90;;;;;;5099588;28;20008;-62
2022/10/01 04:28:29;;;;;;;;;;;9.50;99.90;;;;;;5096034;28;19968;-62
2022/10/01 04:33:40;;;;;;;;;;;9.50;99.90;;;;;;5104681;28;19958;-63
2022/10/01 04:36:08;;;;;;;;;;;9.50;99.90;;;;;;5103320;28;19964;-62
2022/10/01 04:38:36;;;;;;;;;;;9.50;99.90;;;;;;5095298;28;19968;-62
2022/10/01 04:41:03;;;;;;;;;;;9.60;99.90;;;;;;5094573;28;19962;-62
2022/10/01 04:43:31;;;;;;;;;;;9.50;99.90;;;;;;5099477;28;19972;-61
2022/10/01 04:46:00;;;;;;;;;;;9.50;99.90;;;;;;5104461;28;19958;-62
2022/10/01 04:48:28;;;;;;;;;;;9.50;99.90;;;;;;5101876;28;19958;-61
2022/10/01 04:50:56;;;;;;;;;;;9.40;99.90;;;;;;5098069;28;20339;-62
2022/10/01 04:53:24;;;;;;;;;;;9.50;99.90;;;;;;5106115;28;19969;-62
2022/10/01 04:55:51;;;;;;;;;;;9.50;99.90;;;;;;5096114;28;20016;-62
2022/10/01 04:58:19;;;;;;;;;;;9.50;99.90;;;;;;5101851;28;19964;-61
2022/10/01 05:00:48;;;;;;;;;;;9.50;99.90;;;;;;5099069;28;19974;-62
2022/10/01 05:03:17;;;;;;;;;;;9.60;99.90;;;;;;5102693;28;19968;-62
2022/10/01 05:05:45;;;;;;;;;;;9.60;99.90;;;;;;5098920;28;19974;-62
2022/10/01 05:08:12;;;;;;;;;;;9.50;99.90;;;;;;5109651;28;20342;-62
2022/10/01 05:10:40;;;;;;;;;;;9.60;99.90;;;;;;5100502;28;19958;-62
2022/10/01 05:13:09;;;;;;;;;;;9.60;99.90;;;;;;5096088;28;19989;-62
2022/10/01 05:15:37;;;;;;;;;;;9.60;99.90;;;;;;5101874;28;19957;-62
2022/10/01 05:18:05;;;;;;;;;;;9.70;99.90;;;;;;5114437;28;20471;-63
2022/10/01 05:20:36;;;;;;;;;;;9.70;99.90;;;;;;5113417;28;19988;-62
2022/10/01 05:23:04;;;;;;;;;;;9.70;99.90;;;;;;5114069;28;19966;-62
2022/10/01 05:25:32;;;;;;;;;;;9.70;99.90;;;;;;5113925;28;19976;-62
2022/10/01 05:28:03;;;;;;;;;;;9.60;99.90;;;;;;5107630;28;19972;-62
2022/10/01 05:30:31;;;;;;;;;;;9.70;99.90;;;;;;5110757;28;19965;-62
2022/10/01 05:33:00;;;;;;;;;;;9.70;99.90;;;;;;5107302;28;19966;-61
2022/10/01 05:35:28;;;;;;;;;;;9.60;99.90;;;;;;5095079;28;20621;-63
2022/10/01 05:37:58;;;;;;;;;;;9.60;99.90;;;;;;5093517;28;19970;-62
2022/10/01 05:40:26;;;;;;;;;;;9.60;99.90;;;;;;5115038;22;19970;-71
2022/10/01 05:42:54;;;;;;;;;;;9.60;99.90;;;;;;5079525;28;19970;-72
2022/10/01 05:45:22;;;;;;;;;;;9.70;99.90;;;;;;5084416;28;19963;-70
2022/10/01 05:48:00;;;;;;;;;;;9.60;99.90;;;;;;5073840;28;19988;-71
2022/10/01 05:50:31;;;;;;;;;;;9.70;99.90;;;;;;5081398;28;19962;-70
2022/10/01 05:53:00;;;;;;;;;;;9.70;99.90;;;;;;5073823;28;19975;-71
2022/10/01 05:55:33;;;;;;;;;;;9.70;99.90;;;;;;5069172;28;21215;-67
2022/10/01 05:58:02;;;;;;;;;;;9.70;99.90;;;;;;5068186;28;19982;-69
2022/10/01 06:00:31;;;;;;;;;;;9.70;99.90;;;;;;5068314;28;20422;-70
2022/10/01 06:02:59;;;;;;;;;;;9.70;99.90;;;;;;5066153;28;19981;-71
2022/10/01 06:05:29;;;;;;;;;;;9.70;99.90;;;;;;5068288;28;21141;-67
2022/10/01 06:07:56;;;;;;;;;;;9.70;99.90;;;;;;5064006;28;19974;-70
2022/10/01 06:10:28;;;;;;;;;;;9.70;99.90;;;;;;5063719;28;19969;-74
2022/10/01 06:12:59;;;;;;;;;;;9.70;99.90;;;;;;5062134;28;19974;-72
2022/10/01 06:15:26;;;;;;;;;;;9.70;99.90;;;;;;5063660;28;19981;-74
2022/10/01 06:17:54;;;;;;;;;;;9.70;99.90;;;;;;5063230;28;19993;-73
2022/10/01 06:20:22;;;;;;;;;;;9.70;99.90;;;;;;5063256;28;19969;-72
2022/10/01 06:22:53;;;;;;;;;;;9.70;99.90;;;;;;5061301;28;19963;-71
2022/10/01 06:25:21;;;;;;;;;;;9.70;99.90;;;;;;5064110;28;19989;-71
2022/10/01 06:27:56;;;;;;;;;;;9.70;99.90;;;;;;5063792;28;19963;-74
2022/10/01 06:30:25;;;;;;;;;;;9.70;99.90;;;;;;5070864;28;19967;-75
2022/10/01 06:32:54;;;;;;;;;;;9.70;99.90;;;;;;5067667;28;20939;-73
2022/10/01 06:35:21;;;;;;;;;;;9.70;99.90;;;;;;5068470;28;19974;-70
2022/10/01 06:37:50;;;;;;;;;;;9.70;99.90;;;;;;5072453;28;19970;-70
2022/10/01 06:40:18;;;;;;;;;;;9.70;99.90;;;;;;5070161;28;20601;-73
2022/10/01 06:42:47;;;;;;;;;;;9.70;99.90;;;;;;5069418;28;19980;-71
2022/10/01 06:45:16;;;;;;;;;;;9.80;99.90;;;;;;5068878;28;20012;-75
2022/10/01 06:47:44;;;;;;;;;;;9.80;99.90;;;;;;5071066;28;19980;-70
2022/10/01 06:50:12;;;;;;;;;;;9.70;99.90;;;;;;5068977;28;19975;-75
2022/10/01 06:52:49;;;;;;;;;;;9.80;99.90;;;;;;5067993;28;19970;-73
2022/10/01 06:55:17;;;;;;;;;;;9.70;99.90;;;;;;5068806;28;19962;-73
2022/10/01 06:57:45;;;;;;;;;;;9.80;99.90;;;;;;5065799;28;19978;-75
2022/10/01 07:00:13;;;;;;;;;;;9.70;99.90;;;;;;5068405;28;19993;-71
2022/10/01 07:02:42;;;;;;;;;;;9.80;99.90;;;;;;5067647;28;19977;-74
2022/10/01 07:05:11;;;;;;;;;;;9.80;99.90;;;;;;5068381;28;19974;-72
2022/10/01 07:07:39;;;;;;;;;;;9.80;99.90;;;;;;5067641;28;19977;-72
2022/10/01 07:10:08;;;;;;;;;;;9.80;99.90;;;;;;5070491;28;19971;-72
2022/10/01 07:12:36;;;;;;;;;;;9.80;99.90;;;;;;5067657;28;19970;-71
2022/10/01 07:15:04;;;;;;;;;;;9.80;99.90;;;;;;5074273;28;19974;-70
2022/10/01 07:17:32;;;;;;;;;;;9.70;99.90;;;;;;5068498;28;20133;-71
2022/10/01 07:20:02;;;;;;;;;;;9.80;99.90;;;;;;5069461;28;20427;-71
2022/10/01 07:22:29;;;;;;;;;;;9.70;99.90;;;;;;5066360;28;20051;-71
2022/10/01 07:24:57;;;;;;;;;;;9.70;99.90;;;;;;5069139;28;19967;-76
2022/10/01 07:27:25;;;;;;;;;;;9.80;99.90;;;;;;5066584;28;19970;-71
2022/10/01 07:29:53;;;;;;;;;;;9.80;99.90;;;;;;5068572;28;20068;-72
2022/10/01 07:32:20;;;;;;;;;;;9.80;99.90;;;;;;5067653;28;19978;-73
2022/10/01 07:34:48;;;;;;;;;;;9.80;99.90;;;;;;5065757;28;20440;-72
2022/10/01 07:37:17;;;;;;;;;;;9.80;99.90;;;;;;5068842;28;20353;-74
2022/10/01 07:39:45;;;;;;;;;;;9.80;99.90;;;;;;5067387;28;19974;-73
2022/10/01 07:42:12;;;;;;;;;;;9.80;99.90;;;;;;5066628;28;20559;-72
2022/10/01 07:44:40;;;;;;;;;;;9.90;99.90;;;;;;5068831;28;20346;-74
2022/10/01 07:47:08;;;;;;;;;;;9.90;99.90;;;;;;5067721;28;19970;-73
2022/10/01 07:49:36;;;;;;;;;;;9.90;99.90;;;;;;5067774;28;20447;-72
2022/10/01 07:52:04;;;;;;;;;;;9.90;99.90;;;;;;5067749;28;19970;-72
2022/10/01 07:54:40;;;;;;;;;;;9.90;99.90;;;;;;5068453;28;20609;-71
2022/10/01 07:57:08;;;;;;;;;;;9.90;99.90;;;;;;5067079;28;19970;-72
2022/10/01 07:59:37;;;;;;;;;;;9.90;99.90;;;;;;5067661;28;19992;-73
2022/10/01 08:02:04;;;;;;;;;;;10.00;99.90;;;;;;5068722;28;19982;-72
2022/10/01 08:07:18;;;;;;;;;;;10.00;99.90;;;;;;5065506;28;20045;-73
2022/10/01 08:09:48;;;;;;;;;;;10.10;99.90;;;;;;5067222;28;19974;-72
2022/10/01 08:12:16;;;;;;;;;;;10.00;99.90;;;;;;5067115;28;19977;-71
2022/10/01 08:14:44;;;;;;;;;;;10.00;99.90;;;;;;5068136;28;19985;-70
2022/10/01 08:17:12;;;;;;;;;;;10.00;99.90;;;;;;5068987;28;19985;-70
2022/10/01 08:19:40;;;;;;;;;;;10.10;99.90;;;;;;5067067;28;19976;-73
2022/10/01 08:22:07;;;;;;;;;;;10.10;99.90;;;;;;5072754;28;19978;-72
2022/10/01 08:24:35;;;;;;;;;;;10.10;99.90;;;;;;5072676;28;19959;-71
2022/10/01 08:27:05;;;;;;;;;;;10.20;99.90;;;;;;5080552;28;20010;-71
2022/10/01 08:29:33;;;;;;;;;;;10.20;99.90;;;;;;5072051;28;19967;-72
2022/10/01 08:32:01;;;;;;;;;;;10.20;99.90;;;;;;5075166;28;20012;-72
2022/10/01 08:34:30;;;;;;;;;;;10.20;99.90;;;;;;5074783;28;20009;-72
2022/10/01 08:36:57;;;;;;;;;;;10.20;99.90;;;;;;5073974;28;19971;-71
2022/10/01 08:39:25;;;;;;;;;;;10.20;99.90;;;;;;5074951;28;19971;-71
2022/10/01 08:41:56;;;;;;;;;;;10.20;99.90;;;;;;5074703;28;19970;-71
2022/10/01 08:44:28;;;;;;;;;;;10.20;99.90;;;;;;5075117;28;20327;-71
2022/10/01 08:46:59;;;;;;;;;;;10.30;99.90;;;;;;5074947;28;20012;-72
2022/10/01 08:49:30;;;;;;;;;;;10.30;99.90;;;;;;5074963;28;19966;-71
2022/10/01 08:51:59;;;;;;;;;;;10.30;99.90;;;;;;5074715;28;19970;-71
2022/10/01 08:54:32;;;;;;;;;;;10.40;99.90;;;;;;5074911;28;19970;-72
2022/10/01 08:57:01;;;;;;;;;;;10.40;99.90;;;;;;5074758;28;20388;-71
2022/10/01 08:59:33;;;;;;;;;;;10.40;99.90;;;;;;5074721;28;19966;-71
2022/10/01 09:02:01;;;;;;;;;;;10.40;99.90;;;;;;5074739;28;19971;-71
2022/10/01 09:04:29;;;;;;;;;;;10.50;99.90;;;;;;5074873;28;19943;-71
2022/10/01 09:07:01;;;;;;;;;;;10.50;99.90;;;;;;5074558;28;20065;-73
2022/10/01 09:09:39;;;;;;;;;;;10.50;99.90;;;;;;5074613;28;19966;-73
2022/10/01 09:12:14;;;;;;;;;;;10.60;99.90;;;;;;5074665;28;20036;-72
2022/10/01 09:14:55;;;;;;;;;;;10.70;99.90;;;;;;5074534;28;20388;-71
2022/10/01 09:17:29;;;;;;;;;;;10.70;99.90;;;;;;5074377;28;19967;-72
2022/10/01 09:20:01;;;;;;;;;;;10.70;99.90;;;;;;5074691;28;19974;-71
2022/10/01 09:22:37;;;;;;;;;;;10.80;99.90;;;;;;5056265;28;20032;-71
2022/10/01 09:25:11;;;;;;;;;;;10.90;99.90;;;;;;5074509;28;20150;-71
2022/10/01 09:27:39;;;;;;;;;;;10.90;99.90;;;;;;5074110;28;19974;-70
2022/10/01 09:30:11;;;;;;;;;;;11.00;99.90;;;;;;5074164;28;19971;-71
2022/10/01 09:32:41;;;;;;;;;;;11.00;99.90;;;;;;5074183;28;19972;-71
2022/10/01 09:35:14;;;;;;;;;;;11.00;99.90;;;;;;5073778;28;20431;-73
2022/10/01 09:37:45;;;;;;;;;;;11.00;99.90;;;;;;5073572;28;20001;-71
2022/10/01 09:40:18;;;;;;;;;;;11.10;99.90;;;;;;5073620;28;19966;-71
2022/10/01 09:42:47;;;;;;;;;;;11.00;99.90;;;;;;5074027;28;19970;-70
2022/10/01 09:45:18;;;;;;;;;;;11.00;99.90;;;;;;5073572;28;19975;-71
2022/10/01 09:47:49;;;;;;;;;;;11.00;99.90;;;;;;5073631;28;19974;-71
2022/10/01 09:50:19;;;;;;;;;;;11.00;99.90;;;;;;5073615;28;19970;-70
2022/10/01 09:52:49;;;;;;;;;;;11.00;99.90;;;;;;5073928;28;19967;-71
2022/10/01 09:55:22;;;;;;;;;;;11.00;99.90;;;;;;5055817;28;20353;-70
2022/10/01 09:57:53;;;;;;;;;;;11.00;99.90;;;;;;5073550;28;19966;-71
2022/10/01 10:00:22;;;;;;;;;;;11.00;99.90;;;;;;5073437;28;19970;-70
2022/10/01 10:02:52;;;;;;;;;;;11.00;99.90;;;;;;5073828;28;19971;-70
2022/10/01 10:05:21;;;;;;;;;;;11.00;99.90;;;;;;5073558;28;20385;-70
2022/10/01 10:07:51;;;;;;;;;;;11.00;99.90;;;;;;5073648;28;19973;-71
2022/10/01 10:10:20;;;;;;;;;;;11.00;99.90;;;;;;5073334;28;20012;-70
2022/10/01 10:12:55;;;;;;;;;;;11.00;99.90;;;;;;5073444;28;19967;-70
2022/10/01 10:15:26;;;;;;;;;;;11.00;99.90;;;;;;5055602;28;19975;-71
2022/10/01 10:17:54;;;;;;;;;;;11.00;99.90;;;;;;5072598;28;20516;-67
2022/10/01 10:20:28;;;;;;;;;;;11.00;99.90;;;;;;5073132;28;20388;-70
2022/10/01 10:23:05;;;;;;;;;;;11.10;99.90;;;;;;5073266;28;19981;-71
2022/10/01 10:25:33;;;;;;;;;;;11.00;99.90;;;;;;5072887;28;19985;-73
2022/10/01 10:28:03;;;;;;;;;;;11.00;99.90;;;;;;5072850;28;19971;-71
2022/10/01 10:30:33;;;;;;;;;;;11.00;99.90;;;;;;5054404;28;19993;-70
2022/10/01 10:33:05;;;;;;;;;;;11.10;99.90;;;;;;5073061;28;20428;-71
2022/10/01 10:35:33;;;;;;;;;;;11.10;99.90;;;;;;5072427;28;20347;-71
2022/10/01 10:38:01;;;;;;;;;;;11.00;99.90;;;;;;5072906;28;20017;-71
2022/10/01 10:40:32;;;;;;;;;;;11.10;99.90;;;;;;5068365;28;20017;-71
2022/10/01 10:43:00;;;;;;;;;;;11.10;99.90;;;;;;5052679;28;19974;-71
2022/10/01 10:45:30;;;;;;;;;;;11.10;99.90;;;;;;5052434;28;20021;-71
2022/10/01 10:48:01;;;;;;;;;;;11.10;99.90;;;;;;5052556;28;19974;-71
2022/10/01 10:50:31;;;;;;;;;;;11.10;99.90;;;;;;5052457;28;19985;-70
2022/10/01 10:52:58;;;;;;;;;;;11.10;99.90;;;;;;5052728;28;20398;-70
2022/10/01 10:55:29;;;;;;;;;;;11.20;99.90;;;;;;5052401;28;19967;-70
2022/10/01 10:58:09;;;;;;;;;;;11.20;99.90;;;;;;5052005;28;20025;-71
2022/10/01 11:00:43;;;;;;;;;;;11.20;99.90;;;;;;5052218;28;19971;-71
2022/10/01 11:03:14;;;;;;;;;;;11.30;99.90;;;;;;5052829;28;19971;-71
2022/10/01 11:05:42;;;;;;;;;;;11.40;99.90;;;;;;5052562;28;19971;-70
2022/10/01 11:08:12;;;;;;;;;;;11.40;99.90;;;;;;5052664;28;20010;-71
2022/10/01 11:10:47;;;;;;;;;;;11.40;99.90;;;;;;5052044;28;20406;-71
2022/10/01 11:13:23;;;;;;;;;;;11.40;99.90;;;;;;5034611;28;20069;-71
2022/10/01 11:15:57;;;;;;;;;;;11.50;99.90;;;;;;5052320;28;19997;-71
2022/10/01 11:18:32;;;;;;;;;;;11.50;99.90;;;;;;5052063;28;20014;-71
2022/10/01 11:21:08;;;;;;;;;;;11.50;99.90;;;;;;5051982;28;20066;-72
2022/10/01 11:23:51;;;;;;;;;;;11.50;99.90;;;;;;5051786;28;19979;-71
2022/10/01 11:26:22;;;;;;;;;;;11.60;99.90;;;;;;5050014;28;20011;-71
2022/10/01 11:28:55;;;;;;;;;;;11.60;99.90;;;;;;5051906;28;19970;-71
2022/10/01 11:31:29;;;;;;;;;;;11.60;99.90;;;;;;5051863;28;20462;-70
2022/10/01 11:34:03;;;;;;;;;;;11.70;99.90;;;;;;5052357;28;20025;-70
2022/10/01 11:36:35;;;;;;;;;;;11.70;99.90;;;;;;5051887;28;20017;-71
2022/10/01 11:39:05;;;;;;;;;;;11.80;99.90;;;;;;5051851;28;19967;-70
2022/10/01 11:41:34;;;;;;;;;;;11.90;99.90;;;;;;5088048;22;20443;-64
2022/10/01 11:44:06;;;;;;;;;;;12.00;99.90;;;;;;5071390;28;19970;-64
2022/10/01 11:46:41;;;;;;;;;;;12.10;99.90;;;;;;5072157;28;20482;-63
2022/10/01 11:49:18;;;;;;;;;;;12.20;99.90;;;;;;5071622;28;20328;-64
2022/10/01 11:51:49;;;;;;;;;;;12.30;99.90;;;;;;5071980;28;19971;-64
2022/10/01 11:54:19;;;;;;;;;;;12.40;99.90;;;;;;5072421;28;20017;-63
2022/10/01 11:59:37;;;;;;;;;;;12.40;99.90;;;;;;5075803;28;19974;-63
2022/10/01 12:02:13;;;;;;;;;;;12.40;99.90;;;;;;5076240;28;20435;-64
2022/10/01 12:04:45;;;;;;;;;;;12.50;99.90;;;;;;5076275;28;20080;-64
2022/10/01 12:07:15;;;;;;;;;;;12.60;99.90;;;;;;5076698;28;19971;-65
2022/10/01 12:09:48;;;;;;;;;;;12.70;99.90;;;;;;5075797;28;20475;-64
2022/10/01 12:12:18;;;;;;;;;;;12.80;99.90;;;;;;5076526;28;19970;-63
2022/10/01 12:14:52;;;;;;;;;;;12.90;99.90;;;;;;5076712;28;19974;-64
2022/10/01 12:17:23;;;;;;;;;;;13.00;99.90;;;;;;5076640;28;19967;-64
2022/10/01 12:19:54;;;;;;;;;;;13.10;99.90;;;;;;5067731;28;19966;-64
2022/10/01 12:22:24;;;;;;;;;;;13.10;99.90;;;;;;5075578;28;19971;-64
2022/10/01 12:24:53;;;;;;;;;;;13.20;99.90;;;;;;5075786;28;20020;-64
2022/10/01 12:27:32;;;;;;;;;;;13.20;99.90;;;;;;5075784;28;20006;-64
2022/10/01 12:30:02;;;;;;;;;;;13.30;99.90;;;;;;5075404;28;19978;-64
2022/10/01 12:32:34;;;;;;;;;;;13.20;99.90;;;;;;5075609;28;19966;-65
2022/10/01 12:35:07;;;;;;;;;;;13.30;99.90;;;;;;5075750;28;19970;-65
2022/10/01 12:37:43;;;;;;;;;;;13.30;99.90;;;;;;5074541;28;19970;-64
2022/10/01 12:40:21;;;;;;;;;;;13.20;99.90;;;;;;5074870;28;19966;-64
2022/10/01 12:42:55;;;;;;;;;;;13.20;99.90;;;;;;5075018;28;19996;-64
2022/10/01 12:45:35;;;;;;;;;;;13.30;99.90;;;;;;5075738;28;19965;-64
2022/10/01 12:48:06;;;;;;;;;;;13.50;99.90;;;;;;5075018;28;19967;-64
2022/10/01 12:50:39;;;;;;;;;;;13.60;99.90;;;;;;5074857;28;20036;-64
2022/10/01 12:53:24;;;;;;;;;;;13.70;99.90;;;;;;5075149;28;20020;-64
2022/10/01 12:55:59;;;;;;;;;;;13.80;99.90;;;;;;5075102;28;20000;-64
2022/10/01 12:58:43;;;;;;;;;;;13.90;99.90;;;;;;5074793;28;19971;-64
2022/10/01 13:01:14;;;;;;;;;;;13.90;99.90;;;;;;5062380;28;19970;-64
2022/10/01 13:03:52;;;;;;;;;;;14.00;99.90;;;;;;5074584;28;20017;-64
2022/10/01 13:06:26;;;;;;;;;;;14.10;99.90;;;;;;5074499;28;20024;-64
2022/10/01 13:09:00;;;;;;;;;;;14.20;99.90;;;;;;5074570;28;19966;-64
2022/10/01 13:11:38;;;;;;;;;;;14.30;99.90;;;;;;5074571;28;20036;-64
2022/10/01 13:14:11;;;;;;;;;;;14.40;99.90;;;;;;5074589;28;19967;-64
2022/10/01 13:16:43;;;;;;;;;;;14.50;99.90;;;;;;5074382;28;20012;-64
2022/10/01 13:19:15;;;;;;;;;;;14.60;99.90;;;;;;5074421;28;20393;-64
2022/10/01 13:21:52;;;;;;;;;;;14.50;99.90;;;;;;5074530;28;20029;-64
2022/10/01 13:24:25;;;;;;;;;;;14.60;99.90;;;;;;5074308;28;19966;-64
2022/10/01 13:26:57;;;;;;;;;;;14.60;99.90;;;;;;5074440;28;19978;-64
2022/10/01 13:29:31;;;;;;;;;;;14.70;99.90;;;;;;5074508;28;19966;-64
2022/10/01 13:31:59;;;;;;;;;;;14.70;99.90;;;;;;5074137;28;20493;-64
2022/10/01 13:34:33;;;;;;;;;;;14.70;99.90;;;;;;5074428;28;19970;-64
2022/10/01 13:37:13;;;;;;;;;;;14.70;99.90;;;;;;5073466;28;19966;-64
2022/10/01 13:39:42;;;;;;;;;;;14.80;99.90;;;;;;5073993;28;20024;-64
2022/10/01 13:42:15;;;;;;;;;;;14.90;99.90;;;;;;5073801;28;19970;-64
2022/10/01 13:44:43;;;;;;;;;;;14.90;99.90;;;;;;5074069;28;20024;-64
2022/10/01 13:47:12;;;;;;;;;;;15.00;99.90;;;;;;5073711;28;20020;-64
2022/10/01 13:49:41;;;;;;;;;;;15.00;99.90;;;;;;5074028;28;20092;-63
2022/10/01 13:52:19;;;;;;;;;;;15.10;99.90;;;;;;5073778;28;19970;-64
2022/10/01 13:54:49;;;;;;;;;;;15.20;99.90;;;;;;5073942;28;19966;-64
2022/10/01 13:57:26;;;;;;;;;;;15.20;99.90;;;;;;5073507;28;19997;-64
2022/10/01 13:59:59;;;;;;;;;;;15.30;99.90;;;;;;5074165;28;20446;-64
2022/10/01 14:02:33;;;;;;;;;;;15.70;99.90;;;;;;5073567;28;20222;-64
2022/10/01 14:05:05;;;;;;;;;;;15.90;99.90;;;;;;5073386;28;19967;-63
2022/10/01 14:07:36;;;;;;;;;;;16.10;99.90;;;;;;5073690;28;19970;-64
2022/10/01 14:10:05;;;;;;;;;;;16.40;99.90;;;;;;5073619;28;19966;-64
2022/10/01 14:18:22;;;;;;;;;;;16.10;99.90;;;;;;5071928;28;20328;-64
2022/10/01 14:20:54;;;;;;;;;;;16.00;99.90;;;;;;5072801;28;20520;-64
2022/10/01 14:23:25;;;;;;;;;;;16.00;99.90;;;;;;5073337;28;20002;-64
2022/10/01 14:25:57;;;;;;;;;;;16.10;99.90;;;;;;5073116;28;19970;-64
2022/10/01 14:28:43;;;;;;;;;;;16.30;99.90;;;;;;5073099;28;20061;-64
2022/10/01 14:31:15;;;;;;;;;;;16.30;99.90;;;;;;5073008;28;19971;-64
2022/10/01 14:34:04;;;;;;;;;;;16.50;99.90;;;;;;5073070;28;19967;-64
2022/10/01 14:36:34;;;;;;;;;;;16.70;99.90;;;;;;5068307;28;20000;-64
2022/10/01 14:39:05;;;;;;;;;;;16.60;99.90;;;;;;5072981;28;20010;-64
2022/10/01 14:41:33;;;;;;;;;;;16.50;99.90;;;;;;5072337;28;19967;-64
2022/10/01 14:44:01;;;;;;;;;;;16.50;99.90;;;;;;5072833;28;19967;-64
2022/10/01 14:46:29;;;;;;;;;;;16.90;99.90;;;;;;5072636;28;20000;-64
2022/10/01 14:48:58;;;;;;;;;;;17.40;99.90;;;;;;5072714;28;19973;-64
2022/10/01 14:51:27;;;;;;;;;;;18.00;99.90;;;;;;5072664;28;20054;-64
2022/10/01 14:53:56;;;;;;;;;;;18.40;99.90;;;;;;5072474;28;20463;-64
2022/10/01 14:56:26;;;;;;;;;;;18.70;99.90;;;;;;5072955;28;20069;-65